Aviation Digital Data Service (ADDS)

Output produced by METARs form (0922 UTC 30 March 2015)
found at http://aviationweather.gov/adds/metars/
 
KPHX 300909Z 3009/3106 09008KT P6SM BKN200 
     FM302100 25006KT P6SM BKN200